sensor_id;sensor_type;location;lat;lon;timestamp;temperature;humidity
60860;DHT22;46694;54.382;9.708;2023-08-17T00:00:24;16.20;99.90
60860;DHT22;46694;54.382;9.708;2023-08-17T00:03:04;16.20;99.90
60860;DHT22;46694;54.382;9.708;2023-08-17T00:05:44;16.20;99.90
60860;DHT22;46694;54.382;9.708;2023-08-17T00:08:24;16.20;99.90
60860;DHT22;46694;54.382;9.708;2023-08-17T00:11:03;16.20;99.90
60860;DHT22;46694;54.382;9.708;2023-08-17T00:13:43;16.10;99.90
60860;DHT22;46694;54.382;9.708;2023-08-17T00:16:23;16.10;99.90
60860;DHT22;46694;54.382;9.708;2023-08-17T00:19:02;16.10;99.90
60860;DHT22;46694;54.382;9.708;2023-08-17T00:21:43;16.10;99.90
60860;DHT22;46694;54.382;9.708;2023-08-17T00:24:26;16.10;99.90
60860;DHT22;46694;54.382;9.708;2023-08-17T00:27:05;16.00;99.90
60860;DHT22;46694;54.382;9.708;2023-08-17T00:29:45;16.00;99.90
60860;DHT22;46694;54.382;9.708;2023-08-17T00:32:24;16.00;99.90
60860;DHT22;46694;54.382;9.708;2023-08-17T00:35:04;15.90;99.90
60860;DHT22;46694;54.382;9.708;2023-08-17T00:37:44;15.90;99.90
60860;DHT22;46694;54.382;9.708;2023-08-17T00:40:24;15.80;99.90
60860;DHT22;46694;54.382;9.708;2023-08-17T00:43:04;15.80;99.90
60860;DHT22;46694;54.382;9.708;2023-08-17T00:45:45;15.80;99.90
60860;DHT22;46694;54.382;9.708;2023-08-17T00:48:26;15.80;99.90
60860;DHT22;46694;54.382;9.708;2023-08-17T00:51:08;15.70;99.90
60860;DHT22;46694;54.382;9.708;2023-08-17T00:53:48;15.70;99.90
60860;DHT22;46694;54.382;9.708;2023-08-17T00:56:29;15.70;99.90
60860;DHT22;46694;54.382;9.708;2023-08-17T00:59:09;15.70;99.90
60860;DHT22;46694;54.382;9.708;2023-08-17T01:01:49;15.70;99.90
60860;DHT22;46694;54.382;9.708;2023-08-17T01:04:28;15.70;99.90
60860;DHT22;46694;54.382;9.708;2023-08-17T01:07:08;15.70;99.90
60860;DHT22;46694;54.382;9.708;2023-08-17T01:09:48;15.70;99.90
60860;DHT22;46694;54.382;9.708;2023-08-17T01:15:40;15.60;99.90
60860;DHT22;46694;54.382;9.708;2023-08-17T01:18:26;15.60;99.90
60860;DHT22;46694;54.382;9.708;2023-08-17T01:21:14;15.60;99.90
60860;DHT22;46694;54.382;9.708;2023-08-17T01:23:58;15.60;99.90
60860;DHT22;46694;54.382;9.708;2023-08-17T01:26:40;15.60;99.90
60860;DHT22;46694;54.382;9.708;2023-08-17T01:29:20;15.60;99.90
60860;DHT22;46694;54.382;9.708;2023-08-17T01:32:15;15.50;99.90
60860;DHT22;46694;54.382;9.708;2023-08-17T01:35:04;15.50;99.90
60860;DHT22;46694;54.382;9.708;2023-08-17T01:38:09;15.50;99.90
60860;DHT22;46694;54.382;9.708;2023-08-17T01:40:52;15.50;99.90
60860;DHT22;46694;54.382;9.708;2023-08-17T01:43:33;15.50;99.90
60860;DHT22;46694;54.382;9.708;2023-08-17T01:46:17;15.50;99.90
60860;DHT22;46694;54.382;9.708;2023-08-17T01:49:05;15.40;99.90
60860;DHT22;46694;54.382;9.708;2023-08-17T01:51:45;15.40;99.90
60860;DHT22;46694;54.382;9.708;2023-08-17T01:57:22;15.40;99.90
60860;DHT22;46694;54.382;9.708;2023-08-17T02:00:04;15.30;99.90
60860;DHT22;46694;54.382;9.708;2023-08-17T02:02:44;15.30;99.90
60860;DHT22;46694;54.382;9.708;2023-08-17T02:05:24;15.30;99.90
60860;DHT22;46694;54.382;9.708;2023-08-17T02:08:04;15.30;99.90
60860;DHT22;46694;54.382;9.708;2023-08-17T02:10:44;15.30;99.90
60860;DHT22;46694;54.382;9.708;2023-08-17T02:13:24;15.30;99.90
60860;DHT22;46694;54.382;9.708;2023-08-17T02:16:04;15.30;99.90
60860;DHT22;46694;54.382;9.708;2023-08-17T02:18:44;15.20;99.90
60860;DHT22;46694;54.382;9.708;2023-08-17T02:21:24;15.20;99.90
60860;DHT22;46694;54.382;9.708;2023-08-17T02:24:04;15.30;99.90
60860;DHT22;46694;54.382;9.708;2023-08-17T02:26:44;15.20;99.90
60860;DHT22;46694;54.382;9.708;2023-08-17T02:29:24;15.20;99.90
60860;DHT22;46694;54.382;9.708;2023-08-17T02:32:04;15.20;99.90
60860;DHT22;46694;54.382;9.708;2023-08-17T02:34:44;15.20;99.90
60860;DHT22;46694;54.382;9.708;2023-08-17T02:37:24;15.20;99.90
60860;DHT22;46694;54.382;9.708;2023-08-17T02:40:04;15.20;99.90
60860;DHT22;46694;54.382;9.708;2023-08-17T02:42:44;15.30;99.90
60860;DHT22;46694;54.382;9.708;2023-08-17T02:45:23;15.20;99.90
60860;DHT22;46694;54.382;9.708;2023-08-17T02:48:03;15.30;99.90
60860;DHT22;46694;54.382;9.708;2023-08-17T02:50:43;15.20;99.90
60860;DHT22;46694;54.382;9.708;2023-08-17T02:53:23;15.20;99.90
60860;DHT22;46694;54.382;9.708;2023-08-17T02:56:02;15.20;99.90
60860;DHT22;46694;54.382;9.708;2023-08-17T02:58:42;15.30;99.90
60860;DHT22;46694;54.382;9.708;2023-08-17T03:01:21;15.30;99.90
60860;DHT22;46694;54.382;9.708;2023-08-17T03:04:01;15.30;99.90
60860;DHT22;46694;54.382;9.708;2023-08-17T03:06:41;15.30;99.90
60860;DHT22;46694;54.382;9.708;2023-08-17T03:09:20;15.30;99.90
60860;DHT22;46694;54.382;9.708;2023-08-17T03:12:00;15.30;99.90
60860;DHT22;46694;54.382;9.708;2023-08-17T03:14:40;15.40;99.90
60860;DHT22;46694;54.382;9.708;2023-08-17T03:17:19;15.40;99.90
60860;DHT22;46694;54.382;9.708;2023-08-17T03:19:59;15.30;99.90
60860;DHT22;46694;54.382;9.708;2023-08-17T03:22:39;15.30;99.90
60860;DHT22;46694;54.382;9.708;2023-08-17T03:25:19;15.30;99.90
60860;DHT22;46694;54.382;9.708;2023-08-17T03:28:00;15.30;99.90
60860;DHT22;46694;54.382;9.708;2023-08-17T03:30:41;15.30;99.90
60860;DHT22;46694;54.382;9.708;2023-08-17T03:33:20;15.30;99.90
60860;DHT22;46694;54.382;9.708;2023-08-17T03:36:00;15.30;99.90
60860;DHT22;46694;54.382;9.708;2023-08-17T03:38:40;15.30;99.90
60860;DHT22;46694;54.382;9.708;2023-08-17T03:41:21;15.30;99.90
60860;DHT22;46694;54.382;9.708;2023-08-17T03:44:03;15.40;99.90
60860;DHT22;46694;54.382;9.708;2023-08-17T03:46:45;15.40;99.90
60860;DHT22;46694;54.382;9.708;2023-08-17T03:49:24;15.40;99.90
60860;DHT22;46694;54.382;9.708;2023-08-17T03:52:04;15.40;99.90
60860;DHT22;46694;54.382;9.708;2023-08-17T03:54:45;15.40;99.90
60860;DHT22;46694;54.382;9.708;2023-08-17T03:57:25;15.40;99.90
60860;DHT22;46694;54.382;9.708;2023-08-17T04:00:05;15.40;99.90
60860;DHT22;46694;54.382;9.708;2023-08-17T04:02:46;15.40;99.90
60860;DHT22;46694;54.382;9.708;2023-08-17T04:05:27;15.40;99.90
60860;DHT22;46694;54.382;9.708;2023-08-17T04:08:07;15.40;99.90
60860;DHT22;46694;54.382;9.708;2023-08-17T04:10:46;15.40;99.90
60860;DHT22;46694;54.382;9.708;2023-08-17T04:13:26;15.40;99.90
60860;DHT22;46694;54.382;9.708;2023-08-17T04:16:06;15.40;99.90
60860;DHT22;46694;54.382;9.708;2023-08-17T04:18:46;15.40;99.90
60860;DHT22;46694;54.382;9.708;2023-08-17T04:21:25;15.40;99.90
60860;DHT22;46694;54.382;9.708;2023-08-17T04:24:05;15.30;99.90
60860;DHT22;46694;54.382;9.708;2023-08-17T04:26:45;15.30;99.90
60860;DHT22;46694;54.382;9.708;2023-08-17T04:29:24;15.30;99.90
60860;DHT22;46694;54.382;9.708;2023-08-17T04:32:04;15.30;99.90
60860;DHT22;46694;54.382;9.708;2023-08-17T04:34:45;15.30;99.90
60860;DHT22;46694;54.382;9.708;2023-08-17T04:37:25;15.30;99.90
60860;DHT22;46694;54.382;9.708;2023-08-17T04:40:05;15.20;99.90
60860;DHT22;46694;54.382;9.708;2023-08-17T04:42:45;15.20;99.90
60860;DHT22;46694;54.382;9.708;2023-08-17T04:45:25;15.20;99.90
60860;DHT22;46694;54.382;9.708;2023-08-17T04:48:05;15.20;99.90
60860;DHT22;46694;54.382;9.708;2023-08-17T04:50:45;15.20;99.90
60860;DHT22;46694;54.382;9.708;2023-08-17T04:53:25;15.20;99.90
60860;DHT22;46694;54.382;9.708;2023-08-17T04:56:05;15.30;99.90
60860;DHT22;46694;54.382;9.708;2023-08-17T04:58:44;15.30;99.90
60860;DHT22;46694;54.382;9.708;2023-08-17T05:01:31;15.20;99.90
60860;DHT22;46694;54.382;9.708;2023-08-17T05:04:11;15.30;99.90
60860;DHT22;46694;54.382;9.708;2023-08-17T05:06:51;15.30;99.90
60860;DHT22;46694;54.382;9.708;2023-08-17T05:09:30;15.30;99.90
60860;DHT22;46694;54.382;9.708;2023-08-17T05:12:10;15.30;99.90
60860;DHT22;46694;54.382;9.708;2023-08-17T05:14:54;15.40;99.90
60860;DHT22;46694;54.382;9.708;2023-08-17T05:17:34;15.40;99.90
60860;DHT22;46694;54.382;9.708;2023-08-17T05:20:13;15.50;99.90
60860;DHT22;46694;54.382;9.708;2023-08-17T05:22:53;15.50;99.90
60860;DHT22;46694;54.382;9.708;2023-08-17T05:25:33;15.50;99.90
60860;DHT22;46694;54.382;9.708;2023-08-17T05:28:13;15.50;99.90
60860;DHT22;46694;54.382;9.708;2023-08-17T05:30:53;15.60;99.90
60860;DHT22;46694;54.382;9.708;2023-08-17T05:33:33;15.70;99.90
60860;DHT22;46694;54.382;9.708;2023-08-17T05:36:12;15.70;99.90
60860;DHT22;46694;54.382;9.708;2023-08-17T05:38:55;15.80;99.90
60860;DHT22;46694;54.382;9.708;2023-08-17T05:41:35;15.80;99.90
60860;DHT22;46694;54.382;9.708;2023-08-17T05:44:14;15.80;99.90
60860;DHT22;46694;54.382;9.708;2023-08-17T05:46:54;15.80;99.90
60860;DHT22;46694;54.382;9.708;2023-08-17T05:49:34;15.80;99.90
60860;DHT22;46694;54.382;9.708;2023-08-17T05:52:13;15.80;99.90
60860;DHT22;46694;54.382;9.708;2023-08-17T05:54:53;15.90;99.90
60860;DHT22;46694;54.382;9.708;2023-08-17T05:57:33;15.90;99.90
60860;DHT22;46694;54.382;9.708;2023-08-17T06:00:13;15.90;99.90
60860;DHT22;46694;54.382;9.708;2023-08-17T06:02:53;15.90;99.90
60860;DHT22;46694;54.382;9.708;2023-08-17T06:05:34;16.00;99.90
60860;DHT22;46694;54.382;9.708;2023-08-17T06:08:14;16.00;99.90
60860;DHT22;46694;54.382;9.708;2023-08-17T06:10:53;16.10;99.90
60860;DHT22;46694;54.382;9.708;2023-08-17T06:13:33;16.10;99.90
60860;DHT22;46694;54.382;9.708;2023-08-17T06:16:14;16.10;99.90
60860;DHT22;46694;54.382;9.708;2023-08-17T06:18:54;16.20;99.90
60860;DHT22;46694;54.382;9.708;2023-08-17T06:21:34;16.20;99.90
60860;DHT22;46694;54.382;9.708;2023-08-17T06:24:13;16.30;99.90
60860;DHT22;46694;54.382;9.708;2023-08-17T06:26:53;16.30;99.90
60860;DHT22;46694;54.382;9.708;2023-08-17T06:29:33;16.30;99.90
60860;DHT22;46694;54.382;9.708;2023-08-17T06:32:12;16.40;99.90
60860;DHT22;46694;54.382;9.708;2023-08-17T06:34:52;16.50;99.90
60860;DHT22;46694;54.382;9.708;2023-08-17T06:37:33;16.50;99.90
60860;DHT22;46694;54.382;9.708;2023-08-17T06:40:11;16.60;99.90
60860;DHT22;46694;54.382;9.708;2023-08-17T06:42:50;16.60;99.90
60860;DHT22;46694;54.382;9.708;2023-08-17T06:45:34;16.70;99.90
60860;DHT22;46694;54.382;9.708;2023-08-17T06:48:14;16.80;99.90
60860;DHT22;46694;54.382;9.708;2023-08-17T06:50:54;16.90;99.90
60860;DHT22;46694;54.382;9.708;2023-08-17T06:53:34;16.90;99.90
60860;DHT22;46694;54.382;9.708;2023-08-17T06:56:13;17.00;99.90
60860;DHT22;46694;54.382;9.708;2023-08-17T06:58:53;17.00;99.90
60860;DHT22;46694;54.382;9.708;2023-08-17T07:01:32;17.10;99.90
60860;DHT22;46694;54.382;9.708;2023-08-17T07:04:12;17.10;99.90
60860;DHT22;46694;54.382;9.708;2023-08-17T07:06:52;17.20;99.90
60860;DHT22;46694;54.382;9.708;2023-08-17T07:09:31;17.30;99.90
60860;DHT22;46694;54.382;9.708;2023-08-17T07:12:10;17.30;99.90
60860;DHT22;46694;54.382;9.708;2023-08-17T07:14:50;17.30;99.90
60860;DHT22;46694;54.382;9.708;2023-08-17T07:17:46;17.40;99.90
60860;DHT22;46694;54.382;9.708;2023-08-17T07:20:25;17.50;99.90
60860;DHT22;46694;54.382;9.708;2023-08-17T07:23:04;17.50;99.90
60860;DHT22;46694;54.382;9.708;2023-08-17T07:25:44;17.60;99.90
60860;DHT22;46694;54.382;9.708;2023-08-17T07:28:24;17.60;99.90
60860;DHT22;46694;54.382;9.708;2023-08-17T07:31:03;17.70;99.90
60860;DHT22;46694;54.382;9.708;2023-08-17T07:33:44;17.70;99.90
60860;DHT22;46694;54.382;9.708;2023-08-17T07:36:24;17.80;99.90
60860;DHT22;46694;54.382;9.708;2023-08-17T07:39:04;17.90;99.90
60860;DHT22;46694;54.382;9.708;2023-08-17T07:41:44;18.00;99.90
60860;DHT22;46694;54.382;9.708;2023-08-17T07:44:23;18.10;99.90
60860;DHT22;46694;54.382;9.708;2023-08-17T07:47:03;18.10;99.90
60860;DHT22;46694;54.382;9.708;2023-08-17T07:49:42;18.20;99.90
60860;DHT22;46694;54.382;9.708;2023-08-17T07:52:36;18.20;99.90
60860;DHT22;46694;54.382;9.708;2023-08-17T07:55:16;18.40;99.90
60860;DHT22;46694;54.382;9.708;2023-08-17T07:57:55;18.40;99.90
60860;DHT22;46694;54.382;9.708;2023-08-17T08:00:35;18.40;99.90
60860;DHT22;46694;54.382;9.708;2023-08-17T08:03:15;18.50;99.90
60860;DHT22;46694;54.382;9.708;2023-08-17T08:05:54;18.50;99.90
60860;DHT22;46694;54.382;9.708;2023-08-17T08:08:34;18.50;99.90
60860;DHT22;46694;54.382;9.708;2023-08-17T08:11:14;18.40;99.90
60860;DHT22;46694;54.382;9.708;2023-08-17T08:13:53;18.50;99.90
60860;DHT22;46694;54.382;9.708;2023-08-17T08:16:33;18.50;99.90
60860;DHT22;46694;54.382;9.708;2023-08-17T08:19:12;18.50;99.90
60860;DHT22;46694;54.382;9.708;2023-08-17T08:21:52;18.50;99.90
60860;DHT22;46694;54.382;9.708;2023-08-17T08:24:34;18.60;99.90
60860;DHT22;46694;54.382;9.708;2023-08-17T08:27:14;18.60;99.90
60860;DHT22;46694;54.382;9.708;2023-08-17T08:29:54;18.60;99.90
60860;DHT22;46694;54.382;9.708;2023-08-17T08:32:33;18.70;99.90
60860;DHT22;46694;54.382;9.708;2023-08-17T08:35:13;18.60;99.90
60860;DHT22;46694;54.382;9.708;2023-08-17T08:37:54;18.60;99.90
60860;DHT22;46694;54.382;9.708;2023-08-17T08:40:37;18.60;99.90
60860;DHT22;46694;54.382;9.708;2023-08-17T08:43:19;18.60;99.90
60860;DHT22;46694;54.382;9.708;2023-08-17T08:45:59;18.60;99.90
60860;DHT22;46694;54.382;9.708;2023-08-17T08:48:39;18.60;99.90
60860;DHT22;46694;54.382;9.708;2023-08-17T08:51:25;18.60;99.90
60860;DHT22;46694;54.382;9.708;2023-08-17T08:54:13;18.70;99.90
60860;DHT22;46694;54.382;9.708;2023-08-17T08:57:02;18.70;99.90
60860;DHT22;46694;54.382;9.708;2023-08-17T08:59:45;18.70;99.90
60860;DHT22;46694;54.382;9.708;2023-08-17T09:02:27;18.70;99.90
60860;DHT22;46694;54.382;9.708;2023-08-17T09:05:09;18.70;99.90
60860;DHT22;46694;54.382;9.708;2023-08-17T09:07:49;18.70;99.90
60860;DHT22;46694;54.382;9.708;2023-08-17T09:10:29;18.80;99.90
60860;DHT22;46694;54.382;9.708;2023-08-17T09:13:10;18.80;99.90
60860;DHT22;46694;54.382;9.708;2023-08-17T09:15:49;18.80;99.90
60860;DHT22;46694;54.382;9.708;2023-08-17T09:18:29;18.80;99.90
60860;DHT22;46694;54.382;9.708;2023-08-17T09:21:22;18.80;99.90
60860;DHT22;46694;54.382;9.708;2023-08-17T09:24:02;18.80;99.90
60860;DHT22;46694;54.382;9.708;2023-08-17T09:26:42;18.80;99.90
60860;DHT22;46694;54.382;9.708;2023-08-17T09:29:22;18.80;99.90
60860;DHT22;46694;54.382;9.708;2023-08-17T09:32:08;18.80;99.90
60860;DHT22;46694;54.382;9.708;2023-08-17T09:34:49;18.90;99.90
60860;DHT22;46694;54.382;9.708;2023-08-17T09:37:29;18.90;99.90
60860;DHT22;46694;54.382;9.708;2023-08-17T09:40:13;19.00;99.90
60860;DHT22;46694;54.382;9.708;2023-08-17T09:43:05;19.10;99.90
60860;DHT22;46694;54.382;9.708;2023-08-17T09:45:45;19.30;99.90
60860;DHT22;46694;54.382;9.708;2023-08-17T09:48:26;19.40;99.90
60860;DHT22;46694;54.382;9.708;2023-08-17T09:51:07;19.60;99.90
60860;DHT22;46694;54.382;9.708;2023-08-17T09:53:54;19.70;99.90
60860;DHT22;46694;54.382;9.708;2023-08-17T09:56:34;19.80;99.90
60860;DHT22;46694;54.382;9.708;2023-08-17T09:59:14;19.90;99.90
60860;DHT22;46694;54.382;9.708;2023-08-17T10:01:54;19.90;99.90
60860;DHT22;46694;54.382;9.708;2023-08-17T10:04:35;20.00;99.90
60860;DHT22;46694;54.382;9.708;2023-08-17T10:07:19;19.90;99.90
60860;DHT22;46694;54.382;9.708;2023-08-17T10:10:04;20.00;99.90
60860;DHT22;46694;54.382;9.708;2023-08-17T10:12:48;20.00;99.90
60860;DHT22;46694;54.382;9.708;2023-08-17T10:16:08;20.00;99.90
60860;DHT22;46694;54.382;9.708;2023-08-17T10:19:09;19.90;99.90
60860;DHT22;46694;54.382;9.708;2023-08-17T10:22:10;19.80;99.90
60860;DHT22;46694;54.382;9.708;2023-08-17T10:25:06;19.80;99.90
60860;DHT22;46694;54.382;9.708;2023-08-17T10:27:51;19.80;99.90
60860;DHT22;46694;54.382;9.708;2023-08-17T10:30:32;19.90;99.90
60860;DHT22;46694;54.382;9.708;2023-08-17T10:33:11;20.00;99.90
60860;DHT22;46694;54.382;9.708;2023-08-17T10:35:52;20.00;99.90
60860;DHT22;46694;54.382;9.708;2023-08-17T10:38:33;20.10;99.90
60860;DHT22;46694;54.382;9.708;2023-08-17T10:41:14;20.20;99.90
60860;DHT22;46694;54.382;9.708;2023-08-17T10:43:58;20.10;99.90
60860;DHT22;46694;54.382;9.708;2023-08-17T10:46:40;20.20;99.90
60860;DHT22;46694;54.382;9.708;2023-08-17T10:49:30;20.20;99.90
60860;DHT22;46694;54.382;9.708;2023-08-17T10:52:09;20.20;99.90
60860;DHT22;46694;54.382;9.708;2023-08-17T10:54:49;20.20;99.90
60860;DHT22;46694;54.382;9.708;2023-08-17T10:57:37;20.30;99.90
60860;DHT22;46694;54.382;9.708;2023-08-17T11:00:22;20.40;99.90
60860;DHT22;46694;54.382;9.708;2023-08-17T11:03:07;20.50;99.90
60860;DHT22;46694;54.382;9.708;2023-08-17T11:05:49;20.70;99.90
60860;DHT22;46694;54.382;9.708;2023-08-17T11:08:39;20.80;99.90
60860;DHT22;46694;54.382;9.708;2023-08-17T11:11:22;20.90;99.90
60860;DHT22;46694;54.382;9.708;2023-08-17T11:14:02;21.00;99.90
60860;DHT22;46694;54.382;9.708;2023-08-17T11:16:42;21.00;99.90
60860;DHT22;46694;54.382;9.708;2023-08-17T11:19:22;21.10;99.90
60860;DHT22;46694;54.382;9.708;2023-08-17T11:22:02;21.10;99.90
60860;DHT22;46694;54.382;9.708;2023-08-17T11:24:43;21.10;99.90
60860;DHT22;46694;54.382;9.708;2023-08-17T11:27:22;21.10;99.90
60860;DHT22;46694;54.382;9.708;2023-08-17T11:30:03;21.10;99.90
60860;DHT22;46694;54.382;9.708;2023-08-17T11:32:43;21.10;99.90
60860;DHT22;46694;54.382;9.708;2023-08-17T11:38:39;21.10;99.90
60860;DHT22;46694;54.382;9.708;2023-08-17T11:41:20;21.00;99.90
60860;DHT22;46694;54.382;9.708;2023-08-17T11:43:59;20.90;99.90
60860;DHT22;46694;54.382;9.708;2023-08-17T11:46:39;20.90;99.90
60860;DHT22;46694;54.382;9.708;2023-08-17T11:49:19;20.90;99.90
60860;DHT22;46694;54.382;9.708;2023-08-17T11:51:58;20.80;99.90
60860;DHT22;46694;54.382;9.708;2023-08-17T11:54:41;20.90;99.90
60860;DHT22;46694;54.382;9.708;2023-08-17T11:57:20;20.80;99.90
60860;DHT22;46694;54.382;9.708;2023-08-17T12:00:01;20.90;99.90
60860;DHT22;46694;54.382;9.708;2023-08-17T12:02:42;20.80;99.90
60860;DHT22;46694;54.382;9.708;2023-08-17T12:05:23;20.70;99.90
60860;DHT22;46694;54.382;9.708;2023-08-17T12:08:03;20.60;99.90
60860;DHT22;46694;54.382;9.708;2023-08-17T12:10:48;20.50;99.90
60860;DHT22;46694;54.382;9.708;2023-08-17T12:13:35;20.50;99.90
60860;DHT22;46694;54.382;9.708;2023-08-17T12:16:16;20.60;99.90
60860;DHT22;46694;54.382;9.708;2023-08-17T12:18:57;20.50;99.90
60860;DHT22;46694;54.382;9.708;2023-08-17T12:21:36;20.40;99.90
60860;DHT22;46694;54.382;9.708;2023-08-17T12:24:16;20.30;99.90
60860;DHT22;46694;54.382;9.708;2023-08-17T12:26:58;20.20;99.90
60860;DHT22;46694;54.382;9.708;2023-08-17T12:29:51;20.10;99.90
60860;DHT22;46694;54.382;9.708;2023-08-17T12:32:31;20.10;99.90
60860;DHT22;46694;54.382;9.708;2023-08-17T12:35:10;20.10;99.90
60860;DHT22;46694;54.382;9.708;2023-08-17T12:37:53;20.10;99.90
60860;DHT22;46694;54.382;9.708;2023-08-17T12:40:33;20.10;99.90
60860;DHT22;46694;54.382;9.708;2023-08-17T12:43:13;20.20;99.90
60860;DHT22;46694;54.382;9.708;2023-08-17T12:45:52;20.30;99.90
60860;DHT22;46694;54.382;9.708;2023-08-17T12:48:32;20.30;99.90
60860;DHT22;46694;54.382;9.708;2023-08-17T12:51:12;20.30;99.90
60860;DHT22;46694;54.382;9.708;2023-08-17T12:53:51;20.30;99.90
60860;DHT22;46694;54.382;9.708;2023-08-17T13:00:07;20.30;99.90
60860;DHT22;46694;54.382;9.708;2023-08-17T13:02:48;20.30;99.90
60860;DHT22;46694;54.382;9.708;2023-08-17T13:05:30;20.30;99.90
60860;DHT22;46694;54.382;9.708;2023-08-17T13:08:09;20.30;99.90
60860;DHT22;46694;54.382;9.708;2023-08-17T13:10:51;20.40;99.90
60860;DHT22;46694;54.382;9.708;2023-08-17T13:13:30;20.40;99.90
60860;DHT22;46694;54.382;9.708;2023-08-17T13:16:09;20.40;99.90
60860;DHT22;46694;54.382;9.708;2023-08-17T13:18:51;20.40;99.90
60860;DHT22;46694;54.382;9.708;2023-08-17T13:21:30;20.40;99.90
60860;DHT22;46694;54.382;9.708;2023-08-17T13:24:11;20.40;99.90
60860;DHT22;46694;54.382;9.708;2023-08-17T13:26:50;20.40;99.90
60860;DHT22;46694;54.382;9.708;2023-08-17T13:29:32;20.50;99.90
60860;DHT22;46694;54.382;9.708;2023-08-17T13:32:14;20.60;99.90
60860;DHT22;46694;54.382;9.708;2023-08-17T13:34:54;20.60;99.90
60860;DHT22;46694;54.382;9.708;2023-08-17T13:37:36;20.60;99.90
60860;DHT22;46694;54.382;9.708;2023-08-17T13:40:15;20.60;99.90
60860;DHT22;46694;54.382;9.708;2023-08-17T13:42:55;20.60;99.90
60860;DHT22;46694;54.382;9.708;2023-08-17T13:45:35;20.50;99.90
60860;DHT22;46694;54.382;9.708;2023-08-17T13:48:14;20.40;99.90
60860;DHT22;46694;54.382;9.708;2023-08-17T13:50:54;20.30;99.90
60860;DHT22;46694;54.382;9.708;2023-08-17T13:53:33;20.20;99.90
60860;DHT22;46694;54.382;9.708;2023-08-17T13:56:13;20.10;99.90
60860;DHT22;46694;54.382;9.708;2023-08-17T13:58:52;20.00;99.90
60860;DHT22;46694;54.382;9.708;2023-08-17T14:01:32;19.80;99.90
60860;DHT22;46694;54.382;9.708;2023-08-17T14:04:11;19.70;99.90
60860;DHT22;46694;54.382;9.708;2023-08-17T14:06:51;19.60;99.90
60860;DHT22;46694;54.382;9.708;2023-08-17T14:09:31;19.40;99.90
60860;DHT22;46694;54.382;9.708;2023-08-17T14:12:11;19.30;99.90
60860;DHT22;46694;54.382;9.708;2023-08-17T14:14:50;19.20;99.90
60860;DHT22;46694;54.382;9.708;2023-08-17T14:17:30;19.10;99.90
60860;DHT22;46694;54.382;9.708;2023-08-17T14:20:10;19.10;99.90
60860;DHT22;46694;54.382;9.708;2023-08-17T14:22:50;19.00;99.90
60860;DHT22;46694;54.382;9.708;2023-08-17T14:25:29;19.00;99.90
60860;DHT22;46694;54.382;9.708;2023-08-17T14:28:09;18.90;99.90
60860;DHT22;46694;54.382;9.708;2023-08-17T14:30:49;18.90;99.90
60860;DHT22;46694;54.382;9.708;2023-08-17T14:33:28;18.80;99.90
60860;DHT22;46694;54.382;9.708;2023-08-17T14:36:08;18.80;99.90
60860;DHT22;46694;54.382;9.708;2023-08-17T14:38:47;18.80;99.90
60860;DHT22;46694;54.382;9.708;2023-08-17T14:41:27;18.80;99.90
60860;DHT22;46694;54.382;9.708;2023-08-17T14:44:10;18.80;99.90
60860;DHT22;46694;54.382;9.708;2023-08-17T14:46:50;18.80;99.90
60860;DHT22;46694;54.382;9.708;2023-08-17T14:49:29;18.80;99.90
60860;DHT22;46694;54.382;9.708;2023-08-17T14:52:09;18.80;99.90
60860;DHT22;46694;54.382;9.708;2023-08-17T14:54:49;18.80;99.90
60860;DHT22;46694;54.382;9.708;2023-08-17T14:57:29;18.80;99.90
60860;DHT22;46694;54.382;9.708;2023-08-17T15:00:09;18.90;99.90
60860;DHT22;46694;54.382;9.708;2023-08-17T15:02:49;19.00;99.90
60860;DHT22;46694;54.382;9.708;2023-08-17T15:05:28;19.00;99.90
60860;DHT22;46694;54.382;9.708;2023-08-17T15:08:09;19.00;99.90
60860;DHT22;46694;54.382;9.708;2023-08-17T15:10:49;19.00;99.90
60860;DHT22;46694;54.382;9.708;2023-08-17T15:13:28;19.00;99.90
60860;DHT22;46694;54.382;9.708;2023-08-17T15:16:08;19.00;99.90
60860;DHT22;46694;54.382;9.708;2023-08-17T15:18:48;19.00;99.90
60860;DHT22;46694;54.382;9.708;2023-08-17T15:21:27;19.00;99.90
60860;DHT22;46694;54.382;9.708;2023-08-17T15:24:07;18.90;99.90
60860;DHT22;46694;54.382;9.708;2023-08-17T15:26:48;18.90;99.90
60860;DHT22;46694;54.382;9.708;2023-08-17T15:29:28;18.90;99.90
60860;DHT22;46694;54.382;9.708;2023-08-17T15:32:07;18.90;99.90
60860;DHT22;46694;54.382;9.708;2023-08-17T15:34:47;18.90;99.90
60860;DHT22;46694;54.382;9.708;2023-08-17T15:37:41;18.80;99.90
60860;DHT22;46694;54.382;9.708;2023-08-17T15:40:20;18.90;99.90
60860;DHT22;46694;54.382;9.708;2023-08-17T15:43:00;18.80;99.90
60860;DHT22;46694;54.382;9.708;2023-08-17T15:45:40;18.80;99.90
60860;DHT22;46694;54.382;9.708;2023-08-17T15:48:19;18.90;99.90
60860;DHT22;46694;54.382;9.708;2023-08-17T15:50:59;18.90;99.90
60860;DHT22;46694;54.382;9.708;2023-08-17T15:53:38;18.80;99.90
60860;DHT22;46694;54.382;9.708;2023-08-17T15:56:22;18.80;99.90
60860;DHT22;46694;54.382;9.708;2023-08-17T15:59:01;18.80;99.90
60860;DHT22;46694;54.382;9.708;2023-08-17T16:01:41;18.80;99.90
60860;DHT22;46694;54.382;9.708;2023-08-17T16:04:21;18.90;99.90
60860;DHT22;46694;54.382;9.708;2023-08-17T16:07:00;18.90;99.90
60860;DHT22;46694;54.382;9.708;2023-08-17T16:09:40;18.90;99.90
60860;DHT22;46694;54.382;9.708;2023-08-17T16:12:20;18.90;99.90
60860;DHT22;46694;54.382;9.708;2023-08-17T16:15:00;18.90;99.90
60860;DHT22;46694;54.382;9.708;2023-08-17T16:17:39;19.00;99.90
60860;DHT22;46694;54.382;9.708;2023-08-17T16:20:19;19.00;99.90
60860;DHT22;46694;54.382;9.708;2023-08-17T16:22:59;19.00;99.90
60860;DHT22;46694;54.382;9.708;2023-08-17T16:25:39;19.10;99.90
60860;DHT22;46694;54.382;9.708;2023-08-17T16:28:19;19.10;99.90
60860;DHT22;46694;54.382;9.708;2023-08-17T16:30:58;19.30;99.90
60860;DHT22;46694;54.382;9.708;2023-08-17T16:33:38;19.30;99.90
60860;DHT22;46694;54.382;9.708;2023-08-17T16:36:19;19.40;99.90
60860;DHT22;46694;54.382;9.708;2023-08-17T16:38:59;19.40;99.90
60860;DHT22;46694;54.382;9.708;2023-08-17T16:41:38;19.50;99.90
60860;DHT22;46694;54.382;9.708;2023-08-17T16:44:19;19.50;99.90
60860;DHT22;46694;54.382;9.708;2023-08-17T16:46:59;19.60;99.90
60860;DHT22;46694;54.382;9.708;2023-08-17T16:49:47;19.70;99.90
60860;DHT22;46694;54.382;9.708;2023-08-17T16:52:27;19.80;99.90
60860;DHT22;46694;54.382;9.708;2023-08-17T16:55:07;19.80;99.90
60860;DHT22;46694;54.382;9.708;2023-08-17T16:57:46;19.80;99.90
60860;DHT22;46694;54.382;9.708;2023-08-17T17:00:26;19.70;99.90
60860;DHT22;46694;54.382;9.708;2023-08-17T17:03:05;19.70;99.90
60860;DHT22;46694;54.382;9.708;2023-08-17T17:05:46;19.50;99.90
60860;DHT22;46694;54.382;9.708;2023-08-17T17:08:26;19.40;99.90